sensor_id;sensor_type;location;lat;lon;timestamp;temperature;humidity
45619;DHT22;31343;47.520;19.144;2023-04-15T00:00:05;6.30;99.90
45619;DHT22;31343;47.520;19.144;2023-04-15T00:02:31;6.40;99.90
45619;DHT22;31343;47.520;19.144;2023-04-15T00:04:57;6.50;99.90
45619;DHT22;31343;47.520;19.144;2023-04-15T00:07:23;6.50;99.90
45619;DHT22;31343;47.520;19.144;2023-04-15T00:09:48;6.50;99.90
45619;DHT22;31343;47.520;19.144;2023-04-15T00:12:14;6.60;99.90
45619;DHT22;31343;47.520;19.144;2023-04-15T00:14:40;6.60;99.90
45619;DHT22;31343;47.520;19.144;2023-04-15T00:17:06;6.70;99.90
45619;DHT22;31343;47.520;19.144;2023-04-15T00:19:32;6.70;99.90
45619;DHT22;31343;47.520;19.144;2023-04-15T00:21:59;6.70;99.90
45619;DHT22;31343;47.520;19.144;2023-04-15T00:24:25;6.80;99.90
45619;DHT22;31343;47.520;19.144;2023-04-15T00:26:51;6.80;99.90
45619;DHT22;31343;47.520;19.144;2023-04-15T00:29:17;6.70;99.90
45619;DHT22;31343;47.520;19.144;2023-04-15T00:31:43;6.70;99.90
45619;DHT22;31343;47.520;19.144;2023-04-15T00:34:09;6.70;99.90
45619;DHT22;31343;47.520;19.144;2023-04-15T00:36:35;6.70;99.90
45619;DHT22;31343;47.520;19.144;2023-04-15T00:39:01;6.80;99.90
45619;DHT22;31343;47.520;19.144;2023-04-15T00:41:27;6.70;99.90
45619;DHT22;31343;47.520;19.144;2023-04-15T00:43:53;6.70;99.90
45619;DHT22;31343;47.520;19.144;2023-04-15T00:46:19;6.70;99.90
45619;DHT22;31343;47.520;19.144;2023-04-15T00:48:46;6.80;99.90
45619;DHT22;31343;47.520;19.144;2023-04-15T00:51:12;6.80;99.90
45619;DHT22;31343;47.520;19.144;2023-04-15T00:53:39;6.80;99.90
45619;DHT22;31343;47.520;19.144;2023-04-15T00:56:06;6.80;99.90
45619;DHT22;31343;47.520;19.144;2023-04-15T00:58:32;6.70;99.90
45619;DHT22;31343;47.520;19.144;2023-04-15T01:00:57;6.80;99.90
45619;DHT22;31343;47.520;19.144;2023-04-15T01:03:24;6.70;99.90
45619;DHT22;31343;47.520;19.144;2023-04-15T01:05:50;6.70;99.90
45619;DHT22;31343;47.520;19.144;2023-04-15T01:08:28;6.80;99.90
45619;DHT22;31343;47.520;19.144;2023-04-15T01:10:56;6.80;99.90
45619;DHT22;31343;47.520;19.144;2023-04-15T01:13:23;6.80;99.90
45619;DHT22;31343;47.520;19.144;2023-04-15T01:15:50;6.80;99.90
45619;DHT22;31343;47.520;19.144;2023-04-15T01:18:16;6.80;99.90
45619;DHT22;31343;47.520;19.144;2023-04-15T01:20:42;6.80;99.90
45619;DHT22;31343;47.520;19.144;2023-04-15T01:23:08;6.90;99.90
45619;DHT22;31343;47.520;19.144;2023-04-15T01:25:34;6.90;99.90
45619;DHT22;31343;47.520;19.144;2023-04-15T01:28:00;6.80;99.90
45619;DHT22;31343;47.520;19.144;2023-04-15T01:30:26;6.80;99.90
45619;DHT22;31343;47.520;19.144;2023-04-15T01:32:52;6.80;99.90
45619;DHT22;31343;47.520;19.144;2023-04-15T01:35:19;6.90;99.90
45619;DHT22;31343;47.520;19.144;2023-04-15T01:37:45;6.90;99.90
45619;DHT22;31343;47.520;19.144;2023-04-15T01:40:11;6.80;99.90
45619;DHT22;31343;47.520;19.144;2023-04-15T01:42:38;6.90;99.90
45619;DHT22;31343;47.520;19.144;2023-04-15T01:45:04;6.90;99.90
45619;DHT22;31343;47.520;19.144;2023-04-15T01:47:31;6.80;99.90
45619;DHT22;31343;47.520;19.144;2023-04-15T01:49:58;6.90;99.90
45619;DHT22;31343;47.520;19.144;2023-04-15T01:52:23;6.90;99.90
45619;DHT22;31343;47.520;19.144;2023-04-15T01:54:49;6.80;99.90
45619;DHT22;31343;47.520;19.144;2023-04-15T01:57:15;6.80;99.90
45619;DHT22;31343;47.520;19.144;2023-04-15T01:59:41;6.80;99.90
45619;DHT22;31343;47.520;19.144;2023-04-15T02:02:07;6.80;99.90
45619;DHT22;31343;47.520;19.144;2023-04-15T02:04:33;6.80;99.90
45619;DHT22;31343;47.520;19.144;2023-04-15T02:06:59;6.80;99.90
45619;DHT22;31343;47.520;19.144;2023-04-15T02:09:25;6.80;99.90
45619;DHT22;31343;47.520;19.144;2023-04-15T02:11:51;6.80;99.90
45619;DHT22;31343;47.520;19.144;2023-04-15T02:14:18;6.80;99.90
45619;DHT22;31343;47.520;19.144;2023-04-15T02:16:44;6.80;99.90
45619;DHT22;31343;47.520;19.144;2023-04-15T02:19:10;6.90;99.90
45619;DHT22;31343;47.520;19.144;2023-04-15T02:21:35;6.80;99.90
45619;DHT22;31343;47.520;19.144;2023-04-15T02:24:01;6.90;99.90
45619;DHT22;31343;47.520;19.144;2023-04-15T02:26:27;6.90;99.90
45619;DHT22;31343;47.520;19.144;2023-04-15T02:28:56;6.70;99.90
45619;DHT22;31343;47.520;19.144;2023-04-15T02:31:22;6.80;99.90
45619;DHT22;31343;47.520;19.144;2023-04-15T02:33:47;6.80;99.90
45619;DHT22;31343;47.520;19.144;2023-04-15T02:36:13;6.80;99.90
45619;DHT22;31343;47.520;19.144;2023-04-15T02:38:39;6.90;99.90
45619;DHT22;31343;47.520;19.144;2023-04-15T02:41:07;6.80;99.90
45619;DHT22;31343;47.520;19.144;2023-04-15T02:43:33;6.70;99.90
45619;DHT22;31343;47.520;19.144;2023-04-15T02:45:58;6.70;99.90
45619;DHT22;31343;47.520;19.144;2023-04-15T02:48:24;6.60;99.90
45619;DHT22;31343;47.520;19.144;2023-04-15T02:50:50;6.70;99.90
45619;DHT22;31343;47.520;19.144;2023-04-15T02:53:16;6.80;99.90
45619;DHT22;31343;47.520;19.144;2023-04-15T02:55:42;6.90;99.90
45619;DHT22;31343;47.520;19.144;2023-04-15T02:58:07;6.90;99.90
45619;DHT22;31343;47.520;19.144;2023-04-15T03:00:33;6.90;99.90
45619;DHT22;31343;47.520;19.144;2023-04-15T03:03:03;6.90;99.90
45619;DHT22;31343;47.520;19.144;2023-04-15T03:05:29;7.00;99.90
45619;DHT22;31343;47.520;19.144;2023-04-15T03:07:55;7.10;99.90
45619;DHT22;31343;47.520;19.144;2023-04-15T03:10:21;7.10;99.90
45619;DHT22;31343;47.520;19.144;2023-04-15T03:12:47;7.00;99.90
45619;DHT22;31343;47.520;19.144;2023-04-15T03:15:13;7.10;99.90
45619;DHT22;31343;47.520;19.144;2023-04-15T03:17:39;7.10;99.90
45619;DHT22;31343;47.520;19.144;2023-04-15T03:20:05;7.20;99.90
45619;DHT22;31343;47.520;19.144;2023-04-15T03:22:32;7.20;99.90
45619;DHT22;31343;47.520;19.144;2023-04-15T03:24:57;7.20;99.90
45619;DHT22;31343;47.520;19.144;2023-04-15T03:27:23;7.20;99.90
45619;DHT22;31343;47.520;19.144;2023-04-15T03:29:49;7.20;99.90
45619;DHT22;31343;47.520;19.144;2023-04-15T03:32:15;7.20;99.90
45619;DHT22;31343;47.520;19.144;2023-04-15T03:34:41;7.30;99.90
45619;DHT22;31343;47.520;19.144;2023-04-15T03:37:07;7.30;99.90
45619;DHT22;31343;47.520;19.144;2023-04-15T03:39:33;7.20;99.90
45619;DHT22;31343;47.520;19.144;2023-04-15T03:42:00;7.20;99.90
45619;DHT22;31343;47.520;19.144;2023-04-15T03:44:26;7.20;99.90
45619;DHT22;31343;47.520;19.144;2023-04-15T03:46:52;7.20;99.90
45619;DHT22;31343;47.520;19.144;2023-04-15T03:49:18;7.20;99.90
45619;DHT22;31343;47.520;19.144;2023-04-15T03:51:44;7.20;99.90
45619;DHT22;31343;47.520;19.144;2023-04-15T03:54:10;7.30;99.90
45619;DHT22;31343;47.520;19.144;2023-04-15T03:56:37;7.30;99.90
45619;DHT22;31343;47.520;19.144;2023-04-15T03:59:03;7.30;99.90
45619;DHT22;31343;47.520;19.144;2023-04-15T04:01:28;7.30;99.90
45619;DHT22;31343;47.520;19.144;2023-04-15T04:03:54;7.30;99.90
45619;DHT22;31343;47.520;19.144;2023-04-15T04:06:20;7.40;99.90
45619;DHT22;31343;47.520;19.144;2023-04-15T04:08:46;7.40;99.90
45619;DHT22;31343;47.520;19.144;2023-04-15T04:11:12;7.40;99.90
45619;DHT22;31343;47.520;19.144;2023-04-15T04:13:38;7.40;99.90
45619;DHT22;31343;47.520;19.144;2023-04-15T04:16:04;7.40;99.90
45619;DHT22;31343;47.520;19.144;2023-04-15T04:18:31;7.40;99.90
45619;DHT22;31343;47.520;19.144;2023-04-15T04:20:57;7.30;99.90
45619;DHT22;31343;47.520;19.144;2023-04-15T04:23:22;7.30;99.90
45619;DHT22;31343;47.520;19.144;2023-04-15T04:25:48;7.30;99.90
45619;DHT22;31343;47.520;19.144;2023-04-15T04:28:14;7.20;99.90
45619;DHT22;31343;47.520;19.144;2023-04-15T04:30:40;7.20;99.90
45619;DHT22;31343;47.520;19.144;2023-04-15T04:33:06;7.20;99.90
45619;DHT22;31343;47.520;19.144;2023-04-15T04:35:32;7.20;99.90
45619;DHT22;31343;47.520;19.144;2023-04-15T04:38:00;7.30;99.90
45619;DHT22;31343;47.520;19.144;2023-04-15T04:40:26;7.40;99.90
45619;DHT22;31343;47.520;19.144;2023-04-15T04:42:52;7.50;99.90
45619;DHT22;31343;47.520;19.144;2023-04-15T04:45:19;7.60;99.90
45619;DHT22;31343;47.520;19.144;2023-04-15T04:47:45;7.50;99.90
45619;DHT22;31343;47.520;19.144;2023-04-15T04:50:12;7.50;99.90
45619;DHT22;31343;47.520;19.144;2023-04-15T04:52:38;7.80;99.90
45619;DHT22;31343;47.520;19.144;2023-04-15T04:55:04;9.00;99.90
45619;DHT22;31343;47.520;19.144;2023-04-15T04:57:30;10.30;99.90
45619;DHT22;31343;47.520;19.144;2023-04-15T04:59:56;11.30;99.90
45619;DHT22;31343;47.520;19.144;2023-04-15T05:02:22;11.70;99.90
45619;DHT22;31343;47.520;19.144;2023-04-15T05:04:48;11.90;99.90
45619;DHT22;31343;47.520;19.144;2023-04-15T05:07:16;12.60;99.90
45619;DHT22;31343;47.520;19.144;2023-04-15T05:09:42;13.20;99.90
45619;DHT22;31343;47.520;19.144;2023-04-15T05:12:07;13.70;99.90
45619;DHT22;31343;47.520;19.144;2023-04-15T05:14:33;12.80;99.90
45619;DHT22;31343;47.520;19.144;2023-04-15T05:16:59;11.40;99.90
45619;DHT22;31343;47.520;19.144;2023-04-15T05:19:25;10.30;99.90
45619;DHT22;31343;47.520;19.144;2023-04-15T05:21:51;9.40;99.90
45619;DHT22;31343;47.520;19.144;2023-04-15T05:24:16;9.20;99.90
45619;DHT22;31343;47.520;19.144;2023-04-15T05:26:42;9.10;99.90
45619;DHT22;31343;47.520;19.144;2023-04-15T05:29:08;9.30;99.90
45619;DHT22;31343;47.520;19.144;2023-04-15T05:31:34;9.90;99.90
45619;DHT22;31343;47.520;19.144;2023-04-15T05:34:00;10.30;99.90
45619;DHT22;31343;47.520;19.144;2023-04-15T05:36:26;9.90;99.90
45619;DHT22;31343;47.520;19.144;2023-04-15T05:38:53;10.30;99.90
45619;DHT22;31343;47.520;19.144;2023-04-15T05:41:18;10.10;99.90
45619;DHT22;31343;47.520;19.144;2023-04-15T05:43:45;10.10;99.90
45619;DHT22;31343;47.520;19.144;2023-04-15T05:46:11;10.10;99.90
45619;DHT22;31343;47.520;19.144;2023-04-15T05:48:36;10.00;99.90
45619;DHT22;31343;47.520;19.144;2023-04-15T05:51:02;10.10;99.90
45619;DHT22;31343;47.520;19.144;2023-04-15T05:53:28;9.50;99.90
45619;DHT22;31343;47.520;19.144;2023-04-15T05:55:54;9.20;99.90
45619;DHT22;31343;47.520;19.144;2023-04-15T05:58:20;9.10;99.90
45619;DHT22;31343;47.520;19.144;2023-04-15T06:00:46;8.90;99.90
45619;DHT22;31343;47.520;19.144;2023-04-15T06:03:11;8.80;99.90
45619;DHT22;31343;47.520;19.144;2023-04-15T06:05:37;8.70;99.90
45619;DHT22;31343;47.520;19.144;2023-04-15T06:08:03;8.70;99.90
45619;DHT22;31343;47.520;19.144;2023-04-15T06:10:29;8.60;99.90
45619;DHT22;31343;47.520;19.144;2023-04-15T06:12:55;8.50;99.90
45619;DHT22;31343;47.520;19.144;2023-04-15T06:15:21;8.30;99.90
45619;DHT22;31343;47.520;19.144;2023-04-15T06:17:47;8.30;99.90
45619;DHT22;31343;47.520;19.144;2023-04-15T06:20:13;8.30;99.90
45619;DHT22;31343;47.520;19.144;2023-04-15T06:22:39;8.30;99.90
45619;DHT22;31343;47.520;19.144;2023-04-15T06:25:06;8.30;99.90
45619;DHT22;31343;47.520;19.144;2023-04-15T06:27:33;8.40;99.90
45619;DHT22;31343;47.520;19.144;2023-04-15T06:29:58;8.50;99.90
45619;DHT22;31343;47.520;19.144;2023-04-15T06:32:24;8.60;99.90
45619;DHT22;31343;47.520;19.144;2023-04-15T06:34:50;8.70;99.90
45619;DHT22;31343;47.520;19.144;2023-04-15T06:37:16;8.70;99.90
45619;DHT22;31343;47.520;19.144;2023-04-15T06:39:42;8.70;99.90
45619;DHT22;31343;47.520;19.144;2023-04-15T06:42:10;8.80;99.90
45619;DHT22;31343;47.520;19.144;2023-04-15T06:44:36;8.70;99.90
45619;DHT22;31343;47.520;19.144;2023-04-15T06:47:02;8.80;99.90
45619;DHT22;31343;47.520;19.144;2023-04-15T06:49:28;8.90;99.90
45619;DHT22;31343;47.520;19.144;2023-04-15T06:51:54;9.10;99.90
45619;DHT22;31343;47.520;19.144;2023-04-15T06:54:20;9.20;99.90
45619;DHT22;31343;47.520;19.144;2023-04-15T06:56:45;9.30;99.90
45619;DHT22;31343;47.520;19.144;2023-04-15T06:59:12;9.40;99.90
45619;DHT22;31343;47.520;19.144;2023-04-15T07:01:40;9.30;99.90
45619;DHT22;31343;47.520;19.144;2023-04-15T07:04:06;9.10;99.90
45619;DHT22;31343;47.520;19.144;2023-04-15T07:06:32;9.10;99.90
45619;DHT22;31343;47.520;19.144;2023-04-15T07:09:05;9.20;99.90
45619;DHT22;31343;47.520;19.144;2023-04-15T07:11:31;9.90;99.90
45619;DHT22;31343;47.520;19.144;2023-04-15T07:13:57;10.70;99.90
45619;DHT22;31343;47.520;19.144;2023-04-15T07:16:23;11.70;99.90
45619;DHT22;31343;47.520;19.144;2023-04-15T07:18:49;12.20;99.90
45619;DHT22;31343;47.520;19.144;2023-04-15T07:21:14;13.00;99.90
45619;DHT22;31343;47.520;19.144;2023-04-15T07:23:41;13.80;99.90
45619;DHT22;31343;47.520;19.144;2023-04-15T07:26:07;14.60;99.90
45619;DHT22;31343;47.520;19.144;2023-04-15T07:28:33;13.80;99.90
45619;DHT22;31343;47.520;19.144;2023-04-15T07:30:59;12.40;99.90
45619;DHT22;31343;47.520;19.144;2023-04-15T07:33:25;11.90;99.90
45619;DHT22;31343;47.520;19.144;2023-04-15T07:35:51;12.10;99.90
45619;DHT22;31343;47.520;19.144;2023-04-15T07:38:16;13.00;99.90
45619;DHT22;31343;47.520;19.144;2023-04-15T07:40:42;13.50;99.90
45619;DHT22;31343;47.520;19.144;2023-04-15T07:43:08;14.40;99.90
45619;DHT22;31343;47.520;19.144;2023-04-15T07:45:34;15.40;99.90
45619;DHT22;31343;47.520;19.144;2023-04-15T07:48:01;13.90;99.90
45619;DHT22;31343;47.520;19.144;2023-04-15T07:50:27;13.60;99.90
45619;DHT22;31343;47.520;19.144;2023-04-15T07:52:53;12.40;99.90
45619;DHT22;31343;47.520;19.144;2023-04-15T07:55:19;12.00;99.90
45619;DHT22;31343;47.520;19.144;2023-04-15T07:57:48;12.60;99.90
45619;DHT22;31343;47.520;19.144;2023-04-15T08:00:14;12.70;99.90
45619;DHT22;31343;47.520;19.144;2023-04-15T08:02:41;12.80;99.90
45619;DHT22;31343;47.520;19.144;2023-04-15T08:05:08;12.60;99.90
45619;DHT22;31343;47.520;19.144;2023-04-15T08:07:36;12.20;99.90
45619;DHT22;31343;47.520;19.144;2023-04-15T08:10:03;12.50;99.90
45619;DHT22;31343;47.520;19.144;2023-04-15T08:12:28;12.70;99.90
45619;DHT22;31343;47.520;19.144;2023-04-15T08:14:54;13.20;99.90
45619;DHT22;31343;47.520;19.144;2023-04-15T08:17:21;13.50;99.90
45619;DHT22;31343;47.520;19.144;2023-04-15T08:19:46;12.90;99.90
45619;DHT22;31343;47.520;19.144;2023-04-15T08:22:14;12.50;99.90
45619;DHT22;31343;47.520;19.144;2023-04-15T08:24:40;12.10;99.90
45619;DHT22;31343;47.520;19.144;2023-04-15T08:27:05;12.00;99.90
45619;DHT22;31343;47.520;19.144;2023-04-15T08:29:32;12.20;99.90
45619;DHT22;31343;47.520;19.144;2023-04-15T08:31:59;12.60;99.90
45619;DHT22;31343;47.520;19.144;2023-04-15T08:34:28;12.50;99.90
45619;DHT22;31343;47.520;19.144;2023-04-15T08:36:55;12.60;99.90
45619;DHT22;31343;47.520;19.144;2023-04-15T08:39:21;12.60;99.90
45619;DHT22;31343;47.520;19.144;2023-04-15T08:42:00;12.50;99.90
45619;DHT22;31343;47.520;19.144;2023-04-15T08:44:34;12.80;99.90
45619;DHT22;31343;47.520;19.144;2023-04-15T08:47:02;12.70;99.90
45619;DHT22;31343;47.520;19.144;2023-04-15T08:49:28;12.60;99.90
45619;DHT22;31343;47.520;19.144;2023-04-15T08:51:55;12.40;99.90
45619;DHT22;31343;47.520;19.144;2023-04-15T08:54:22;12.40;99.90
45619;DHT22;31343;47.520;19.144;2023-04-15T08:57:07;11.90;99.90
45619;DHT22;31343;47.520;19.144;2023-04-15T08:59:33;11.80;99.90
45619;DHT22;31343;47.520;19.144;2023-04-15T09:02:00;12.00;99.90
45619;DHT22;31343;47.520;19.144;2023-04-15T09:04:27;11.80;99.90
45619;DHT22;31343;47.520;19.144;2023-04-15T09:06:52;11.70;99.90
45619;DHT22;31343;47.520;19.144;2023-04-15T09:09:18;11.70;99.90
45619;DHT22;31343;47.520;19.144;2023-04-15T09:11:44;11.70;99.90
45619;DHT22;31343;47.520;19.144;2023-04-15T09:14:10;12.00;99.90
45619;DHT22;31343;47.520;19.144;2023-04-15T09:16:59;12.10;99.90
45619;DHT22;31343;47.520;19.144;2023-04-15T09:19:25;11.90;99.90
45619;DHT22;31343;47.520;19.144;2023-04-15T09:21:56;11.90;99.90
45619;DHT22;31343;47.520;19.144;2023-04-15T09:24:22;12.00;99.90
45619;DHT22;31343;47.520;19.144;2023-04-15T09:26:52;12.40;99.90
45619;DHT22;31343;47.520;19.144;2023-04-15T09:29:19;12.60;99.90
45619;DHT22;31343;47.520;19.144;2023-04-15T09:31:45;12.70;99.90
45619;DHT22;31343;47.520;19.144;2023-04-15T09:34:11;12.50;99.90
45619;DHT22;31343;47.520;19.144;2023-04-15T09:36:52;12.20;99.90
45619;DHT22;31343;47.520;19.144;2023-04-15T09:39:19;12.40;99.90
45619;DHT22;31343;47.520;19.144;2023-04-15T09:41:45;12.80;99.90
45619;DHT22;31343;47.520;19.144;2023-04-15T09:44:23;12.90;99.90
45619;DHT22;31343;47.520;19.144;2023-04-15T09:46:49;12.90;99.90
45619;DHT22;31343;47.520;19.144;2023-04-15T09:49:15;12.60;99.90
45619;DHT22;31343;47.520;19.144;2023-04-15T09:51:42;12.50;99.90
45619;DHT22;31343;47.520;19.144;2023-04-15T09:54:08;12.40;99.90
45619;DHT22;31343;47.520;19.144;2023-04-15T09:56:38;12.00;99.90
45619;DHT22;31343;47.520;19.144;2023-04-15T09:59:06;11.90;99.90
45619;DHT22;31343;47.520;19.144;2023-04-15T10:01:33;11.90;99.90
45619;DHT22;31343;47.520;19.144;2023-04-15T10:04:02;12.00;99.90
45619;DHT22;31343;47.520;19.144;2023-04-15T10:06:29;12.10;99.90
45619;DHT22;31343;47.520;19.144;2023-04-15T10:08:58;12.20;99.90
45619;DHT22;31343;47.520;19.144;2023-04-15T10:11:27;12.60;99.90
45619;DHT22;31343;47.520;19.144;2023-04-15T10:13:55;12.70;99.90
45619;DHT22;31343;47.520;19.144;2023-04-15T10:16:22;12.40;99.90
45619;DHT22;31343;47.520;19.144;2023-04-15T10:18:55;12.60;99.90
45619;DHT22;31343;47.520;19.144;2023-04-15T10:21:21;12.70;99.90
45619;DHT22;31343;47.520;19.144;2023-04-15T10:23:48;12.70;99.90
45619;DHT22;31343;47.520;19.144;2023-04-15T10:26:15;12.70;99.90
45619;DHT22;31343;47.520;19.144;2023-04-15T10:28:45;12.40;99.90
45619;DHT22;31343;47.520;19.144;2023-04-15T10:31:14;12.10;99.90
45619;DHT22;31343;47.520;19.144;2023-04-15T10:33:42;12.10;99.90
45619;DHT22;31343;47.520;19.144;2023-04-15T10:36:09;11.90;99.90
45619;DHT22;31343;47.520;19.144;2023-04-15T10:38:41;11.90;99.90
45619;DHT22;31343;47.520;19.144;2023-04-15T10:43:54;12.20;99.90
45619;DHT22;31343;47.520;19.144;2023-04-15T10:46:42;12.50;99.90
45619;DHT22;31343;47.520;19.144;2023-04-15T10:51:46;12.20;99.90
45619;DHT22;31343;47.520;19.144;2023-04-15T10:54:31;12.30;99.90
45619;DHT22;31343;47.520;19.144;2023-04-15T10:59:29;12.60;99.90
45619;DHT22;31343;47.520;19.144;2023-04-15T11:02:06;12.60;99.90
45619;DHT22;31343;47.520;19.144;2023-04-15T11:04:54;12.20;99.90
45619;DHT22;31343;47.520;19.144;2023-04-15T11:12:46;11.90;99.90
45619;DHT22;31343;47.520;19.144;2023-04-15T11:18:13;11.20;99.90
45619;DHT22;31343;47.520;19.144;2023-04-15T11:20:45;11.20;99.90
45619;DHT22;31343;47.520;19.144;2023-04-15T11:23:13;11.20;99.90
45619;DHT22;31343;47.520;19.144;2023-04-15T11:25:39;11.20;99.90
45619;DHT22;31343;47.520;19.144;2023-04-15T11:28:05;11.30;99.90
45619;DHT22;31343;47.520;19.144;2023-04-15T11:30:36;11.70;99.90
45619;DHT22;31343;47.520;19.144;2023-04-15T11:33:06;11.80;99.90
45619;DHT22;31343;47.520;19.144;2023-04-15T11:35:36;11.90;99.90
45619;DHT22;31343;47.520;19.144;2023-04-15T11:38:03;11.70;99.90
45619;DHT22;31343;47.520;19.144;2023-04-15T11:40:30;11.70;99.90
45619;DHT22;31343;47.520;19.144;2023-04-15T11:45:33;12.00;99.90
45619;DHT22;31343;47.520;19.144;2023-04-15T11:48:09;12.30;99.90
45619;DHT22;31343;47.520;19.144;2023-04-15T11:50:36;12.60;99.90
45619;DHT22;31343;47.520;19.144;2023-04-15T11:53:04;12.30;99.90
45619;DHT22;31343;47.520;19.144;2023-04-15T11:55:31;12.20;99.90
45619;DHT22;31343;47.520;19.144;2023-04-15T12:00:32;12.40;99.90
45619;DHT22;31343;47.520;19.144;2023-04-15T12:03:12;12.40;99.90
45619;DHT22;31343;47.520;19.144;2023-04-15T12:08:56;12.00;99.90
45619;DHT22;31343;47.520;19.144;2023-04-15T12:14:02;12.00;99.90
45619;DHT22;31343;47.520;19.144;2023-04-15T12:16:28;11.90;99.90
45619;DHT22;31343;47.520;19.144;2023-04-15T12:18:56;11.80;99.90
45619;DHT22;31343;47.520;19.144;2023-04-15T12:21:23;12.30;99.90
45619;DHT22;31343;47.520;19.144;2023-04-15T12:23:53;12.30;99.90
45619;DHT22;31343;47.520;19.144;2023-04-15T12:26:36;12.50;99.90
45619;DHT22;31343;47.520;19.144;2023-04-15T12:29:05;13.10;99.90
45619;DHT22;31343;47.520;19.144;2023-04-15T12:31:32;13.00;99.90
45619;DHT22;31343;47.520;19.144;2023-04-15T12:33:59;12.70;99.90
45619;DHT22;31343;47.520;19.144;2023-04-15T12:36:26;12.60;99.90
45619;DHT22;31343;47.520;19.144;2023-04-15T12:38:53;12.60;99.90
45619;DHT22;31343;47.520;19.144;2023-04-15T12:41:22;12.70;99.90
45619;DHT22;31343;47.520;19.144;2023-04-15T12:43:49;12.80;99.90
45619;DHT22;31343;47.520;19.144;2023-04-15T12:46:14;13.20;99.90
45619;DHT22;31343;47.520;19.144;2023-04-15T12:48:41;12.80;99.90
45619;DHT22;31343;47.520;19.144;2023-04-15T12:51:07;12.50;99.90
45619;DHT22;31343;47.520;19.144;2023-04-15T12:53:32;12.30;99.90
45619;DHT22;31343;47.520;19.144;2023-04-15T12:55:58;12.20;99.90
45619;DHT22;31343;47.520;19.144;2023-04-15T12:58:24;12.10;99.90
45619;DHT22;31343;47.520;19.144;2023-04-15T13:00:50;12.10;99.90
45619;DHT22;31343;47.520;19.144;2023-04-15T13:03:16;12.30;99.90
45619;DHT22;31343;47.520;19.144;2023-04-15T13:05:42;12.20;99.90
45619;DHT22;31343;47.520;19.144;2023-04-15T13:08:07;12.00;99.90
45619;DHT22;31343;47.520;19.144;2023-04-15T13:10:34;11.90;99.90
45619;DHT22;31343;47.520;19.144;2023-04-15T13:13:04;12.00;99.90
45619;DHT22;31343;47.520;19.144;2023-04-15T13:15:30;12.10;99.90
45619;DHT22;31343;47.520;19.144;2023-04-15T13:17:56;12.10;99.90
45619;DHT22;31343;47.520;19.144;2023-04-15T13:20:22;12.20;99.90
45619;DHT22;31343;47.520;19.144;2023-04-15T13:22:48;12.20;99.90
45619;DHT22;31343;47.520;19.144;2023-04-15T13:25:13;12.20;99.90
45619;DHT22;31343;47.520;19.144;2023-04-15T13:27:39;12.10;99.90
45619;DHT22;31343;47.520;19.144;2023-04-15T13:30:05;12.00;99.90
45619;DHT22;31343;47.520;19.144;2023-04-15T13:32:32;12.20;99.90
45619;DHT22;31343;47.520;19.144;2023-04-15T13:34:57;12.20;99.90
45619;DHT22;31343;47.520;19.144;2023-04-15T13:37:27;12.10;99.90
45619;DHT22;31343;47.520;19.144;2023-04-15T13:39:54;11.90;99.90
45619;DHT22;31343;47.520;19.144;2023-04-15T13:42:21;12.10;99.90
45619;DHT22;31343;47.520;19.144;2023-04-15T13:44:48;12.30;99.90
45619;DHT22;31343;47.520;19.144;2023-04-15T13:47:13;12.20;99.90
45619;DHT22;31343;47.520;19.144;2023-04-15T13:49:40;12.10;99.90
45619;DHT22;31343;47.520;19.144;2023-04-15T13:52:06;12.00;99.90
45619;DHT22;31343;47.520;19.144;2023-04-15T13:54:32;11.90;99.90
45619;DHT22;31343;47.520;19.144;2023-04-15T13:56:57;11.90;99.90
45619;DHT22;31343;47.520;19.144;2023-04-15T13:59:23;11.90;99.90
45619;DHT22;31343;47.520;19.144;2023-04-15T14:01:49;11.80;99.90
45619;DHT22;31343;47.520;19.144;2023-04-15T14:04:15;11.80;99.90
45619;DHT22;31343;47.520;19.144;2023-04-15T14:06:40;11.80;99.90
45619;DHT22;31343;47.520;19.144;2023-04-15T14:09:06;11.80;99.90
45619;DHT22;31343;47.520;19.144;2023-04-15T14:11:32;11.70;99.90
45619;DHT22;31343;47.520;19.144;2023-04-15T14:13:59;11.70;99.90
45619;DHT22;31343;47.520;19.144;2023-04-15T14:16:25;11.80;99.90
45619;DHT22;31343;47.520;19.144;2023-04-15T14:18:51;11.90;99.90
45619;DHT22;31343;47.520;19.144;2023-04-15T14:21:17;12.00;99.90
45619;DHT22;31343;47.520;19.144;2023-04-15T14:23:42;12.10;99.90
45619;DHT22;31343;47.520;19.144;2023-04-15T14:26:08;11.80;99.90
45619;DHT22;31343;47.520;19.144;2023-04-15T14:28:34;11.70;99.90
45619;DHT22;31343;47.520;19.144;2023-04-15T14:31:00;11.70;99.90
45619;DHT22;31343;47.520;19.144;2023-04-15T14:33:26;11.80;99.90
45619;DHT22;31343;47.520;19.144;2023-04-15T14:35:51;11.80;99.90
45619;DHT22;31343;47.520;19.144;2023-04-15T14:38:17;11.80;99.90
45619;DHT22;31343;47.520;19.144;2023-04-15T14:40:43;11.90;99.90
45619;DHT22;31343;47.520;19.144;2023-04-15T14:43:09;11.90;99.90
45619;DHT22;31343;47.520;19.144;2023-04-15T14:45:36;11.90;99.90
45619;DHT22;31343;47.520;19.144;2023-04-15T14:48:02;11.90;99.90
45619;DHT22;31343;47.520;19.144;2023-04-15T14:50:28;11.80;99.90
45619;DHT22;31343;47.520;19.144;2023-04-15T14:52:53;11.70;99.90
45619;DHT22;31343;47.520;19.144;2023-04-15T14:55:19;11.80;99.90
45619;DHT22;31343;47.520;19.144;2023-04-15T14:57:45;11.80;99.90
45619;DHT22;31343;47.520;19.144;2023-04-15T15:00:12;11.80;99.90
45619;DHT22;31343;47.520;19.144;2023-04-15T15:02:38;11.90;99.90
45619;DHT22;31343;47.520;19.144;2023-04-15T15:05:04;11.90;99.90
45619;DHT22;31343;47.520;19.144;2023-04-15T15:07:30;12.00;99.90
45619;DHT22;31343;47.520;19.144;2023-04-15T15:09:56;12.10;99.90
45619;DHT22;31343;47.520;19.144;2023-04-15T15:12:23;12.00;99.90
45619;DHT22;31343;47.520;19.144;2023-04-15T15:14:49;12.00;99.90
45619;DHT22;31343;47.520;19.144;2023-04-15T15:17:15;11.90;99.90
45619;DHT22;31343;47.520;19.144;2023-04-15T15:19:41;11.90;99.90
45619;DHT22;31343;47.520;19.144;2023-04-15T15:22:07;11.80;99.90
45619;DHT22;31343;47.520;19.144;2023-04-15T15:24:32;11.80;99.90
45619;DHT22;31343;47.520;19.144;2023-04-15T15:26:58;11.80;99.90
45619;DHT22;31343;47.520;19.144;2023-04-15T15:29:24;11.80;99.90
45619;DHT22;31343;47.520;19.144;2023-04-15T15:31:49;11.80;99.90
45619;DHT22;31343;47.520;19.144;2023-04-15T15:34:15;11.70;99.90
45619;DHT22;31343;47.520;19.144;2023-04-15T15:36:41;11.80;99.90
45619;DHT22;31343;47.520;19.144;2023-04-15T15:39:07;11.70;99.90
45619;DHT22;31343;47.520;19.144;2023-04-15T15:41:34;11.70;99.90
45619;DHT22;31343;47.520;19.144;2023-04-15T15:44:01;11.70;99.90
45619;DHT22;31343;47.520;19.144;2023-04-15T15:46:28;11.70;99.90